Time;durP1;ratioP1;P1;durP2;ratioP2;P2;SDS_P1;SDS_P2;PMS_P1;PMS_P2;Temp;Humidity;BMP_temperature;BMP_pressure;BME280_temperature;BME280_humidity;BME280_pressure;Samples;Min_cycle;Max_cycle;Signal;HPM_P1;HPM_P2
2023/10/15 00:02:06;;;;;;;8.27;1.27;;;8.00;99.90;;;;;;4954713;28;20030;-79
2023/10/15 00:04:33;;;;;;;7.78;1.55;;;8.10;99.90;;;;;;4969481;28;20045;-79
2023/10/15 00:06:59;;;;;;;5.78;1.58;;;8.20;99.90;;;;;;4975522;28;20062;-78
2023/10/15 00:09:25;;;;;;;3.65;1.10;;;8.10;99.90;;;;;;4972399;28;20487;-79
2023/10/15 00:11:51;;;;;;;2.33;0.88;;;8.20;99.90;;;;;;4957836;28;20625;-79
2023/10/15 00:14:16;;;;;;;3.47;1.30;;;8.10;99.90;;;;;;4954157;28;20507;-79
2023/10/15 00:16:42;;;;;;;9.27;1.88;;;8.00;99.90;;;;;;4974317;28;20030;-79
2023/10/15 00:19:10;;;;;;;7.43;1.45;;;8.10;99.90;;;;;;4970485;28;20034;-79
2023/10/15 00:21:38;;;;;;;2.92;1.33;;;8.20;99.90;;;;;;4973072;28;20525;-80
2023/10/15 00:24:07;;;;;;;6.68;1.17;;;8.10;99.90;;;;;;4958592;28;20042;-78
2023/10/15 00:26:34;;;;;;;10.77;1.63;;;8.10;99.90;;;;;;4971222;28;20061;-78
2023/10/15 00:29:00;;;;;;;8.38;1.90;;;8.10;99.90;;;;;;4954227;28;20050;-78
2023/10/15 00:31:26;;;;;;;10.77;1.33;;;8.10;99.90;;;;;;4972604;28;20076;-79
2023/10/15 00:33:51;;;;;;;6.13;1.83;;;8.10;99.90;;;;;;4971262;28;20069;-79
2023/10/15 00:36:17;;;;;;;7.55;1.25;;;8.10;99.90;;;;;;4971530;28;20121;-79
2023/10/15 00:38:44;;;;;;;8.27;1.70;;;7.90;99.90;;;;;;4974381;28;20027;-79
2023/10/15 00:41:16;;;;;;;4.47;1.05;;;8.00;99.90;;;;;;4953485;28;20030;-79
2023/10/15 00:43:52;;;;;;;7.63;2.38;;;8.00;99.90;;;;;;4972153;28;20097;-79
2023/10/15 00:46:17;;;;;;;6.38;1.55;;;8.10;99.90;;;;;;4955566;28;20089;-79
2023/10/15 00:48:43;;;;;;;8.93;2.20;;;8.00;99.90;;;;;;4956095;28;20026;-79
2023/10/15 00:51:11;;;;;;;7.65;1.60;;;8.00;99.90;;;;;;4975554;28;20057;-79
2023/10/15 00:53:42;;;;;;;5.68;2.03;;;8.10;99.90;;;;;;4974366;28;20502;-79
2023/10/15 00:56:10;;;;;;;5.95;1.63;;;8.00;99.90;;;;;;4962694;28;21239;-79
2023/10/15 01:04:06;;;;;;;6.45;1.35;;;7.90;99.90;;;;;;4977587;28;20045;-79
2023/10/15 01:06:40;;;;;;;2.78;1.10;;;8.00;99.90;;;;;;4961092;28;20509;-79
2023/10/15 01:09:10;;;;;;;5.47;1.85;;;8.00;99.90;;;;;;4960227;28;20062;-79
2023/10/15 01:11:36;;;;;;;17.70;2.00;;;8.00;99.90;;;;;;4958297;28;20039;-79
2023/10/15 01:14:02;;;;;;;8.13;1.50;;;8.00;99.90;;;;;;4958794;28;20034;-78
2023/10/15 01:16:31;;;;;;;4.60;1.05;;;8.00;99.90;;;;;;4977824;28;20034;-79
2023/10/15 01:21:48;;;;;;;2.53;0.75;;;8.00;99.90;;;;;;4979148;28;20040;-79
2023/10/15 01:24:18;;;;;;;7.53;1.15;;;8.00;99.90;;;;;;4963506;28;20031;-78
2023/10/15 01:26:51;;;;;;;3.35;0.88;;;8.00;99.90;;;;;;4978732;28;20023;-78
2023/10/15 01:29:20;;;;;;;4.65;1.30;;;8.00;99.90;;;;;;4959806;28;20056;-79
2023/10/15 01:31:56;;;;;;;4.93;1.05;;;8.00;99.90;;;;;;4961717;28;20520;-78
2023/10/15 01:34:22;;;;;;;3.30;0.60;;;8.10;99.90;;;;;;4964933;28;20509;-78
2023/10/15 01:36:48;;;;;;;6.22;1.35;;;8.10;99.90;;;;;;4975439;28;20038;-78
2023/10/15 01:39:21;;;;;;;4.82;1.33;;;8.00;99.90;;;;;;4962109;28;20121;-78
2023/10/15 01:41:50;;;;;;;4.53;1.60;;;8.10;99.90;;;;;;4989241;28;20061;-78
2023/10/15 01:44:19;;;;;;;8.02;1.48;;;8.10;99.90;;;;;;4975212;28;20058;-78
2023/10/15 01:46:48;;;;;;;10.77;1.83;;;8.10;99.90;;;;;;4977141;28;20117;-78
2023/10/15 01:49:31;;;;;;;7.43;2.08;;;7.70;99.90;;;;;;4975242;28;20069;-78
2023/10/15 01:52:09;;;;;;;13.10;1.95;;;7.50;99.90;;;;;;4974064;28;20038;-78
2023/10/15 01:54:37;;;;;;;2.90;1.30;;;7.30;99.90;;;;;;4980452;28;20585;-78
2023/10/15 01:57:06;;;;;;;8.23;1.48;;;7.50;99.90;;;;;;4976065;28;20517;-78
2023/10/15 01:59:47;;;;;;;10.00;2.05;;;7.50;99.90;;;;;;4975347;28;20478;-78
2023/10/15 02:02:15;;;;;;;7.57;2.00;;;7.30;99.90;;;;;;4958837;28;20145;-78
2023/10/15 02:04:47;;;;;;;8.95;2.60;;;7.50;99.90;;;;;;4973261;28;20088;-78
2023/10/15 02:07:19;;;;;;;6.57;3.03;;;7.70;99.90;;;;;;4976919;28;20616;-78
2023/10/15 02:09:45;;;;;;;6.60;1.70;;;7.60;99.90;;;;;;4975034;28;20410;-78
2023/10/15 02:12:14;;;;;;;7.05;2.08;;;7.60;99.90;;;;;;4975072;28;20031;-78
2023/10/15 02:14:44;;;;;;;8.63;3.38;;;7.80;99.90;;;;;;4975078;28;20095;-78
2023/10/15 02:17:13;;;;;;;3.53;1.90;;;7.60;99.90;;;;;;4974507;28;20034;-78
2023/10/15 02:19:41;;;;;;;6.13;2.70;;;7.50;99.90;;;;;;4978189;28;20061;-78
2023/10/15 02:22:12;;;;;;;10.25;3.65;;;7.70;99.90;;;;;;4973677;28;20489;-78
2023/10/15 02:24:37;;;;;;;6.05;2.10;;;7.60;99.90;;;;;;4972898;28;20038;-78
2023/10/15 02:27:05;;;;;;;4.53;1.95;;;7.60;99.90;;;;;;4978779;28;20030;-78
2023/10/15 02:32:06;;;;;;;7.68;2.55;;;7.70;99.90;;;;;;4974365;28;20038;-79
2023/10/15 02:34:31;;;;;;;6.95;3.08;;;7.70;99.90;;;;;;4975701;28;20084;-78
2023/10/15 02:37:03;;;;;;;6.10;2.10;;;7.70;99.90;;;;;;4977175;28;20443;-78
2023/10/15 02:39:36;;;;;;;11.52;4.28;;;7.60;99.90;;;;;;4979749;28;20378;-78
2023/10/15 02:42:04;;;;;;;4.82;2.95;;;7.70;99.90;;;;;;4976864;28;20079;-78
2023/10/15 02:44:32;;;;;;;10.27;4.88;;;7.70;99.90;;;;;;4969631;28;20031;-78
2023/10/15 02:47:07;;;;;;;7.82;3.70;;;7.70;99.90;;;;;;4973343;28;20045;-78
2023/10/15 02:50:06;;;;;;;5.00;3.47;;;7.60;99.90;;;;;;4975807;28;20040;-78
2023/10/15 02:52:25;;;;;;;10.02;4.75;;;7.70;99.90;;;;;;4969470;28;20046;-78
2023/10/15 02:54:51;;;;;;;7.40;3.55;;;7.70;99.90;;;;;;4978591;28;20486;-78
2023/10/15 02:57:16;;;;;;;6.72;3.97;;;7.60;99.90;;;;;;4971672;28;20445;-78
2023/10/15 02:59:52;;;;;;;10.68;4.03;;;7.60;99.90;;;;;;4972749;28;20421;-78
2023/10/15 03:02:24;;;;;;;6.60;3.65;;;7.70;99.90;;;;;;4960354;28;20038;-78
2023/10/15 03:04:54;;;;;;;6.45;4.15;;;7.80;99.90;;;;;;4974289;28;20082;-78
2023/10/15 03:07:30;;;;;;;10.35;4.90;;;7.70;99.90;;;;;;4967937;28;20735;-77
2023/10/15 03:09:56;;;;;;;5.65;4.15;;;7.70;99.90;;;;;;4957453;28;20423;-78
2023/10/15 03:12:22;;;;;;;8.23;5.32;;;7.70;99.90;;;;;;4972163;28;20088;-77
2023/10/15 03:14:48;;;;;;;9.13;4.20;;;7.70;99.90;;;;;;4972667;28;20043;-79
2023/10/15 03:17:14;;;;;;;4.45;3.60;;;7.80;99.90;;;;;;4975985;28;20033;-78
2023/10/15 03:19:42;;;;;;;4.45;2.47;;;7.80;99.90;;;;;;4973945;28;20029;-78
2023/10/15 03:22:12;;;;;;;5.38;3.90;;;7.60;99.90;;;;;;4977117;28;20049;-78
2023/10/15 03:24:44;;;;;;;7.43;4.70;;;7.60;99.90;;;;;;4956540;28;20031;-79
2023/10/15 03:27:16;;;;;;;10.75;3.53;;;7.60;99.90;;;;;;4971412;28;20033;-79
2023/10/15 03:29:42;;;;;;;8.85;4.75;;;7.70;99.90;;;;;;4962554;28;20031;-81
2023/10/15 03:32:12;;;;;;;6.78;3.65;;;7.90;99.90;;;;;;4960908;28;20451;-79
2023/10/15 03:34:47;;;;;;;8.80;4.43;;;7.80;99.90;;;;;;4973977;28;20042;-80
2023/10/15 03:37:21;;;;;;;6.28;3.47;;;7.70;99.90;;;;;;4979262;28;20038;-80
2023/10/15 03:39:56;;;;;;;9.95;4.65;;;7.70;99.90;;;;;;4971485;28;20046;-80
2023/10/15 03:42:28;;;;;;;5.33;3.70;;;7.60;99.90;;;;;;4957751;28;20402;-80
2023/10/15 03:44:59;;;;;;;10.90;5.00;;;7.60;99.90;;;;;;4974557;28;20033;-80
2023/10/15 03:47:25;;;;;;;5.95;3.70;;;7.50;99.90;;;;;;4972952;28;20052;-80
2023/10/15 03:49:55;;;;;;;13.55;3.97;;;7.60;99.90;;;;;;4974962;28;20398;-80
2023/10/15 03:52:21;;;;;;;6.68;2.88;;;7.60;99.90;;;;;;4961085;28;20114;-81
2023/10/15 03:54:49;;;;;;;5.47;2.70;;;7.60;99.90;;;;;;4955166;28;20160;-80
2023/10/15 03:57:19;;;;;;;7.38;3.05;;;7.60;99.90;;;;;;4973749;28;20495;-80
2023/10/15 03:59:51;;;;;;;5.55;2.95;;;7.40;99.90;;;;;;4957756;28;20109;-80
2023/10/15 04:02:22;;;;;;;4.53;3.05;;;7.40;99.90;;;;;;4975690;28;20034;-79
2023/10/15 04:05:00;;;;;;;7.40;3.35;;;7.40;99.90;;;;;;4969069;28;20126;-80
2023/10/15 04:07:27;;;;;;;5.40;2.55;;;7.30;99.90;;;;;;4977036;28;20033;-80
2023/10/15 04:09:52;;;;;;;5.00;2.97;;;7.30;99.90;;;;;;4961188;28;20513;-80
2023/10/15 04:12:18;;;;;;;5.22;2.50;;;7.40;99.90;;;;;;4957521;28;20065;-80
2023/10/15 04:14:44;;;;;;;3.03;2.22;;;7.30;99.90;;;;;;4973459;28;20034;-79
2023/10/15 04:17:10;;;;;;;5.28;2.00;;;7.50;99.90;;;;;;4956169;28;20065;-80
2023/10/15 04:19:36;;;;;;;2.45;2.05;;;7.50;99.90;;;;;;4963138;28;20084;-79
2023/10/15 04:22:14;;;;;;;4.68;2.33;;;7.50;99.90;;;;;;4975857;28;20033;-79
2023/10/15 04:24:50;;;;;;;4.63;2.03;;;7.50;99.90;;;;;;4956316;28;20034;-80
2023/10/15 04:27:16;;;;;;;;;;;7.50;99.90;;;;;;4972249;28;20116;-80
2023/10/15 04:29:52;;;;;;;4.13;1.75;;;7.50;99.90;;;;;;4974455;28;19957;-80
2023/10/15 04:32:45;;;;;;;3.03;1.83;;;7.50;99.90;;;;;;4977130;28;20042;-80
2023/10/15 04:35:25;;;;;;;3.63;1.60;;;7.60;99.90;;;;;;4974308;28;20045;-80
2023/10/15 04:37:52;;;;;;;4.60;2.03;;;7.50;99.90;;;;;;4954813;28;20038;-79
2023/10/15 04:40:23;;;;;;;7.00;2.20;;;7.50;99.90;;;;;;4975169;28;20027;-80
2023/10/15 04:42:49;;;;;;;7.55;2.25;;;7.50;99.90;;;;;;4959683;28;20050;-79
2023/10/15 04:45:35;;;;;;;4.50;2.00;;;7.50;99.90;;;;;;4954597;28;20478;-79
2023/10/15 04:48:01;;;;;;;4.37;1.40;;;7.40;99.90;;;;;;4974334;28;20040;-79
2023/10/15 04:50:35;;;;;;;1.55;0.77;;;7.50;99.90;;;;;;4957672;28;20385;-77
2023/10/15 04:53:13;;;;;;;4.88;1.42;;;7.60;99.90;;;;;;4956758;28;20042;-78
2023/10/15 04:55:44;;;;;;;1.63;0.70;;;7.50;99.90;;;;;;4958815;28;20046;-79
2023/10/15 04:58:10;;;;;;;3.20;1.48;;;7.50;99.90;;;;;;4958437;28;20030;-78
2023/10/15 05:00:41;;;;;;;1.38;1.05;;;7.60;99.90;;;;;;4971441;28;20036;-79
2023/10/15 05:03:07;;;;;;;4.53;1.05;;;7.70;99.90;;;;;;4954671;28;20105;-78
2023/10/15 05:05:32;;;;;;;5.03;1.42;;;7.70;99.90;;;;;;4969285;28;20038;-78
2023/10/15 05:08:00;;;;;;;2.47;1.30;;;7.70;99.90;;;;;;4971090;28;20018;-80
2023/10/15 05:10:45;;;;;;;2.85;1.45;;;7.70;99.90;;;;;;4957883;28;20820;-79
2023/10/15 05:13:11;;;;;;;3.00;1.00;;;7.50;99.90;;;;;;4958100;28;20026;-80
2023/10/15 05:15:38;;;;;;;4.55;1.35;;;7.50;99.90;;;;;;4970296;28;20042;-78
2023/10/15 05:18:04;;;;;;;3.97;1.52;;;7.50;99.90;;;;;;4958118;28;20034;-79
2023/10/15 05:20:31;;;;;;;3.97;1.33;;;7.50;99.90;;;;;;4950672;28;20041;-80
2023/10/15 05:22:56;;;;;;;1.75;1.08;;;7.50;99.90;;;;;;4955940;28;20379;-80
2023/10/15 05:25:22;;;;;;;2.22;1.35;;;7.40;99.90;;;;;;4973091;28;20058;-78
2023/10/15 05:27:49;;;;;;;2.10;0.88;;;7.40;99.90;;;;;;4971291;28;20038;-79
2023/10/15 05:30:15;;;;;;;6.68;1.98;;;7.40;99.90;;;;;;4970329;28;20434;-80
2023/10/15 05:32:44;;;;;;;2.53;1.90;;;7.40;99.90;;;;;;4955450;28;20038;-80
2023/10/15 05:35:09;;;;;;;6.38;1.83;;;7.50;99.90;;;;;;4970803;28;20703;-78
2023/10/15 05:37:41;;;;;;;1.05;0.95;;;7.40;99.90;;;;;;4987476;28;20030;-79
2023/10/15 05:40:08;;;;;;;3.72;1.40;;;7.40;99.90;;;;;;4959676;28;20081;-79
2023/10/15 05:42:37;;;;;;;4.80;1.75;;;7.40;99.90;;;;;;4972568;28;20037;-79
2023/10/15 05:45:06;;;;;;;3.50;1.55;;;7.40;99.90;;;;;;4977142;28;20033;-80
2023/10/15 05:47:33;;;;;;;1.58;1.10;;;7.30;99.90;;;;;;4966544;28;20030;-79
2023/10/15 05:49:59;;;;;;;9.07;1.33;;;7.30;99.90;;;;;;4973099;28;20647;-79
2023/10/15 05:52:25;;;;;;;3.78;1.77;;;7.30;99.90;;;;;;4973599;28;20046;-80
2023/10/15 05:54:53;;;;;;;3.67;1.30;;;7.30;99.90;;;;;;4956847;28;20121;-80
2023/10/15 05:57:20;;;;;;;2.65;1.08;;;7.30;99.90;;;;;;4975074;28;20047;-81
2023/10/15 05:59:47;;;;;;;4.88;1.60;;;7.30;99.90;;;;;;4959975;28;21054;-79
2023/10/15 06:02:13;;;;;;;4.22;1.70;;;7.20;99.90;;;;;;4958837;28;20066;-79
2023/10/15 06:04:38;;;;;;;4.70;1.60;;;7.20;99.90;;;;;;4973032;28;20085;-78
2023/10/15 06:07:07;;;;;;;3.20;0.80;;;7.30;99.90;;;;;;4972961;28;20486;-79
2023/10/15 06:09:34;;;;;;;4.38;1.65;;;7.30;99.90;;;;;;4990395;28;20034;-78
2023/10/15 06:12:00;;;;;;;2.97;1.10;;;7.30;99.90;;;;;;4974422;28;20040;-81
2023/10/15 06:14:28;;;;;;;2.80;1.48;;;7.20;99.90;;;;;;4962678;28;20049;-79
2023/10/15 06:16:55;;;;;;;2.15;1.20;;;7.30;99.90;;;;;;4976350;28;20417;-80
2023/10/15 06:19:20;;;;;;;5.22;1.38;;;7.20;99.90;;;;;;4973262;28;20044;-79
2023/10/15 06:21:46;;;;;;;2.90;1.10;;;7.30;99.90;;;;;;4978532;28;20041;-79
2023/10/15 06:24:12;;;;;;;1.92;1.13;;;7.30;99.90;;;;;;4980133;28;20565;-80
2023/10/15 06:26:38;;;;;;;2.85;1.20;;;7.40;99.90;;;;;;4989057;28;20031;-79
2023/10/15 06:29:04;;;;;;;3.53;1.15;;;7.30;99.90;;;;;;4962588;28;20030;-79
2023/10/15 06:31:30;;;;;;;3.80;1.55;;;7.30;99.90;;;;;;4979261;28;20529;-78
2023/10/15 06:33:55;;;;;;;1.98;1.42;;;7.30;99.90;;;;;;4974646;28;20030;-80
2023/10/15 06:36:21;;;;;;;3.65;1.15;;;7.30;99.90;;;;;;4975812;28;20295;-80
2023/10/15 06:38:49;;;;;;;0.75;0.35;;;7.30;99.90;;;;;;4971553;28;20030;-79
2023/10/15 06:41:14;;;;;;;2.67;0.63;;;7.30;99.90;;;;;;4994188;28;20034;-79
2023/10/15 06:43:40;;;;;;;2.00;0.98;;;7.30;99.90;;;;;;4963459;28;20034;-79
2023/10/15 06:46:07;;;;;;;3.03;0.77;;;7.30;99.90;;;;;;4975612;28;20478;-79
2023/10/15 06:48:33;;;;;;;0.52;0.30;;;7.30;99.90;;;;;;4973147;28;20387;-79
2023/10/15 06:51:02;;;;;;;1.27;0.65;;;7.30;99.90;;;;;;4980743;28;20649;-79
2023/10/15 06:53:28;;;;;;;5.00;0.80;;;7.30;99.90;;;;;;4973556;28;20033;-78
2023/10/15 06:55:53;;;;;;;3.60;0.90;;;7.30;99.90;;;;;;4975246;28;20026;-79
2023/10/15 06:58:19;;;;;;;3.35;1.00;;;7.30;99.90;;;;;;4974265;28;20030;-79
2023/10/15 07:00:45;;;;;;;2.33;0.80;;;7.40;99.90;;;;;;4958465;28;20045;-79
2023/10/15 07:03:10;;;;;;;3.47;1.02;;;7.40;99.90;;;;;;4991149;28;20027;-79
2023/10/15 07:05:36;;;;;;;0.20;0.20;;;7.40;99.90;;;;;;4975137;28;20096;-79
2023/10/15 07:08:01;;;;;;;2.47;0.82;;;7.50;99.90;;;;;;4973917;28;20030;-78
2023/10/15 07:10:27;;;;;;;1.70;0.63;;;7.40;99.90;;;;;;4974255;28;20027;-79
2023/10/15 07:12:54;;;;;;;0.80;0.63;;;7.40;99.90;;;;;;4958918;28;20033;-78
2023/10/15 07:15:20;;;;;;;4.60;1.00;;;7.50;99.90;;;;;;4972555;28;20042;-77
2023/10/15 07:17:46;;;;;;;3.05;1.13;;;7.50;99.90;;;;;;4975757;28;20037;-77
2023/10/15 07:20:14;;;;;;;2.42;0.77;;;7.60;99.90;;;;;;4956234;28;20030;-77
2023/10/15 07:22:43;;;;;;;1.02;0.60;;;7.50;99.90;;;;;;4941852;28;20038;-77
2023/10/15 07:25:09;;;;;;;2.10;0.90;;;7.50;99.90;;;;;;4961116;28;20034;-77
2023/10/15 07:27:45;;;;;;;1.55;0.60;;;7.60;99.90;;;;;;4970664;28;20863;-77
2023/10/15 07:30:12;;;;;;;2.60;1.00;;;7.60;99.90;;;;;;4974033;28;20033;-78
2023/10/15 07:32:40;;;;;;;2.63;0.70;;;7.60;99.90;;;;;;4974964;28;20045;-77
2023/10/15 07:35:12;;;;;;;1.48;0.80;;;7.60;99.90;;;;;;4972074;28;20685;-77
2023/10/15 07:37:41;;;;;;;4.15;0.60;;;7.60;99.90;;;;;;4972281;28;20700;-77
2023/10/15 07:40:17;;;;;;;1.08;0.52;;;7.70;99.90;;;;;;4981116;28;20049;-77
2023/10/15 07:42:48;;;;;;;1.30;0.80;;;7.70;99.90;;;;;;4994749;28;20045;-77
2023/10/15 07:45:14;;;;;;;1.17;0.85;;;7.80;99.90;;;;;;4987377;28;20494;-77
2023/10/15 07:47:39;;;;;;;1.80;0.73;;;7.70;99.90;;;;;;4971048;28;20040;-77
2023/10/15 07:50:10;;;;;;;4.70;0.70;;;7.60;99.90;;;;;;4972650;28;20054;-77
2023/10/15 07:52:37;;;;;;;5.78;0.60;;;7.60;99.90;;;;;;4956291;28;20046;-77
2023/10/15 07:55:05;;;;;;;2.58;0.88;;;7.60;99.90;;;;;;4973511;28;20045;-77
2023/10/15 07:57:31;;;;;;;1.25;0.85;;;7.80;99.90;;;;;;4972765;28;20049;-77
2023/10/15 07:59:58;;;;;;;1.48;0.82;;;7.80;99.90;;;;;;4975367;28;20046;-77
2023/10/15 08:02:27;;;;;;;1.80;0.90;;;7.90;99.90;;;;;;4972432;28;20544;-77
2023/10/15 08:04:56;;;;;;;1.83;1.15;;;7.90;99.90;;;;;;4956032;28;20039;-77
2023/10/15 08:07:22;;;;;;;3.25;1.20;;;8.10;99.90;;;;;;4973466;28;20044;-77
2023/10/15 08:09:48;;;;;;;2.75;0.98;;;8.10;99.90;;;;;;4954271;28;20049;-77
2023/10/15 08:12:14;;;;;;;2.55;0.82;;;8.30;99.90;;;;;;4955747;28;20038;-77
2023/10/15 08:14:40;;;;;;;4.53;0.88;;;8.40;99.90;;;;;;4973314;28;20095;-78
2023/10/15 08:17:05;;;;;;;3.60;0.98;;;8.50;99.90;;;;;;4976725;28;20038;-77
2023/10/15 08:19:31;;;;;;;3.85;1.08;;;8.60;99.90;;;;;;4976639;28;20126;-78
2023/10/15 08:21:57;;;;;;;8.27;0.82;;;8.80;99.90;;;;;;4975018;28;20091;-77
2023/10/15 08:24:22;;;;;;;1.08;0.57;;;9.00;99.90;;;;;;4969327;28;20130;-79
2023/10/15 08:26:48;;;;;;;2.13;0.85;;;8.90;99.90;;;;;;4973044;28;20034;-79
2023/10/15 08:29:13;;;;;;;2.10;0.80;;;9.10;99.90;;;;;;4958908;28;20486;-77
2023/10/15 08:31:39;;;;;;;2.63;0.80;;;9.10;99.90;;;;;;4974128;28;20455;-79
2023/10/15 08:34:04;;;;;;;1.50;0.65;;;9.10;99.90;;;;;;4958428;28;20209;-78
2023/10/15 08:36:30;;;;;;;4.32;0.70;;;9.10;99.90;;;;;;4969136;28;20049;-79
2023/10/15 08:38:56;;;;;;;4.10;0.80;;;9.10;99.90;;;;;;4958783;28;20038;-79
2023/10/15 08:41:21;;;;;;;4.97;2.08;;;9.10;99.90;;;;;;4954140;28;20049;-79
2023/10/15 08:43:48;;;;;;;1.73;0.90;;;9.10;99.90;;;;;;4971837;28;20161;-78
2023/10/15 08:46:15;;;;;;;4.57;0.73;;;9.20;99.90;;;;;;4971694;28;20023;-78
2023/10/15 08:48:41;;;;;;;1.52;0.65;;;9.30;99.90;;;;;;4971724;28;20035;-78
2023/10/15 08:51:08;;;;;;;1.23;0.40;;;9.20;99.90;;;;;;4955205;28;20066;-78
2023/10/15 08:53:35;;;;;;;4.03;0.80;;;9.30;99.90;;;;;;4956140;28;20026;-78
2023/10/15 08:56:01;;;;;;;3.33;0.90;;;9.30;99.90;;;;;;4972840;28;20034;-78
2023/10/15 08:58:26;;;;;;;1.67;0.77;;;9.30;99.90;;;;;;4971281;28;20042;-78
2023/10/15 09:00:53;;;;;;;4.35;0.80;;;9.40;99.90;;;;;;4966829;28;20118;-77
2023/10/15 09:03:19;;;;;;;3.92;0.95;;;9.50;99.90;;;;;;4968997;28;20435;-77
2023/10/15 09:05:44;;;;;;;2.42;0.98;;;9.50;99.90;;;;;;4970105;28;20030;-77
2023/10/15 09:08:12;;;;;;;1.08;0.82;;;9.60;99.90;;;;;;4951934;28;20557;-77
2023/10/15 09:10:42;;;;;;;3.20;1.15;;;9.70;99.90;;;;;;4972927;28;20030;-77
2023/10/15 09:13:14;;;;;;;3.63;1.08;;;9.80;99.90;;;;;;4971463;28;20034;-77
2023/10/15 09:15:43;;;;;;;2.75;1.40;;;9.90;99.90;;;;;;4975428;28;20100;-79
2023/10/15 09:18:11;;;;;;;3.92;1.00;;;10.10;99.90;;;;;;4959753;28;20034;-79
2023/10/15 09:20:39;;;;;;;0.77;0.60;;;10.20;99.90;;;;;;4961689;28;20038;-79
2023/10/15 09:23:05;;;;;;;1.73;1.10;;;10.30;99.90;;;;;;4972651;28;20069;-80
2023/10/15 09:25:31;;;;;;;2.53;1.00;;;10.40;99.90;;;;;;4974088;28;20041;-79
2023/10/15 09:27:57;;;;;;;3.65;1.35;;;10.50;99.90;;;;;;4976160;28;20059;-78
2023/10/15 09:30:27;;;;;;;6.28;1.00;;;10.60;99.90;;;;;;4960641;28;20026;-79
2023/10/15 09:32:53;;;;;;;2.45;1.10;;;10.60;99.90;;;;;;4974392;28;20573;-79
2023/10/15 09:35:20;;;;;;;4.50;1.50;;;10.70;99.90;;;;;;4960926;28;20089;-79
2023/10/15 09:37:46;;;;;;;3.10;1.10;;;10.70;99.90;;;;;;4978387;28;20575;-79
2023/10/15 09:40:18;;;;;;;5.13;1.83;;;10.70;99.90;;;;;;4973841;28;20042;-79
2023/10/15 09:42:49;;;;;;;4.03;1.90;;;10.60;99.90;;;;;;4973436;28;20093;-78
2023/10/15 09:45:18;;;;;;;3.80;2.47;;;10.60;99.90;;;;;;4962144;28;20725;-79
2023/10/15 09:47:52;;;;;;;4.60;2.13;;;10.60;99.90;;;;;;4972995;28;20454;-79
2023/10/15 09:50:20;;;;;;;2.47;1.63;;;10.50;99.90;;;;;;4972701;28;20131;-79
2023/10/15 09:52:55;;;;;;;1.90;1.55;;;10.50;99.90;;;;;;4943002;28;20055;-77
2023/10/15 09:55:26;;;;;;;2.38;1.73;;;10.40;99.90;;;;;;4942620;28;20042;-77
2023/10/15 09:57:56;;;;;;;2.33;1.10;;;10.40;99.90;;;;;;4971572;28;20485;-77
2023/10/15 10:01:08;;;;;;;3.20;2.33;;;10.40;99.90;;;;;;4956601;28;20034;-77
2023/10/15 10:03:26;;;;;;;3.05;1.85;;;10.40;99.90;;;;;;4963733;28;20394;-78
2023/10/15 10:06:09;;;;;;;2.63;1.38;;;10.40;99.90;;;;;;4964953;28;20185;-79
2023/10/15 10:08:47;;;;;;;3.22;2.80;;;10.50;99.90;;;;;;4958875;28;20100;-77
2023/10/15 10:11:45;;;;;;;3.25;2.40;;;10.60;99.90;;;;;;4976786;28;20728;-77
2023/10/15 10:14:33;;;;;;;4.53;1.27;;;10.70;99.90;;;;;;4966699;28;20146;-77
2023/10/15 10:16:59;;;;;;;3.65;1.00;;;10.70;99.90;;;;;;4957575;28;20050;-77
2023/10/15 10:19:27;;;;;;;1.83;1.10;;;10.80;99.90;;;;;;4978396;28;20158;-77
2023/10/15 10:21:53;;;;;;;3.03;0.93;;;10.80;99.90;;;;;;4993243;28;20458;-77
2023/10/15 10:24:18;;;;;;;4.68;1.35;;;11.00;99.90;;;;;;4974760;28;20030;-77
2023/10/15 10:26:52;;;;;;;2.92;1.15;;;11.20;99.90;;;;;;4953996;28;20136;-76
2023/10/15 10:29:18;;;;;;;2.67;1.10;;;11.20;99.90;;;;;;4961144;28;20077;-77
2023/10/15 10:31:45;;;;;;;1.92;0.85;;;11.20;99.90;;;;;;4972336;28;20046;-77
2023/10/15 10:34:11;;;;;;;3.28;1.50;;;11.30;99.90;;;;;;4978719;28;20068;-77
2023/10/15 10:36:39;;;;;;;4.38;1.35;;;11.40;99.90;;;;;;4970769;28;20034;-77
2023/10/15 10:39:07;;;;;;;4.22;1.80;;;11.50;99.90;;;;;;4973457;28;20560;-77
2023/10/15 10:41:39;;;;;;;5.35;1.40;;;11.60;99.90;;;;;;4991412;28;20050;-77
2023/10/15 10:44:26;;;;;;;6.78;2.97;;;11.70;99.90;;;;;;4990428;28;20093;-77
2023/10/15 10:46:56;;;;;;;4.95;2.67;;;11.70;99.90;;;;;;4950216;28;20034;-77
2023/10/15 10:49:34;;;;;;;4.82;2.90;;;11.70;99.90;;;;;;4979593;28;20042;-77
2023/10/15 10:52:15;;;;;;;5.57;2.42;;;11.60;99.90;;;;;;4960448;28;20044;-77
2023/10/15 10:54:41;;;;;;;3.97;2.03;;;11.70;99.90;;;;;;4958133;28;20088;-77
2023/10/15 10:57:12;;;;;;;3.00;2.70;;;11.70;99.90;;;;;;4957508;28;20125;-76
2023/10/15 10:59:41;;;;;;;4.00;2.25;;;11.60;99.90;;;;;;4976416;28;20034;-76
2023/10/15 11:02:11;;;;;;;3.83;1.77;;;11.60;99.90;;;;;;4932833;28;20049;-75
2023/10/15 11:04:40;;;;;;;3.80;2.30;;;11.60;99.90;;;;;;4961316;28;20112;-75
2023/10/15 11:07:14;;;;;;;4.20;2.50;;;11.70;99.90;;;;;;4963795;28;20034;-76
2023/10/15 11:09:41;;;;;;;3.38;2.28;;;11.80;99.90;;;;;;4965774;28;20048;-75
2023/10/15 11:12:11;;;;;;;2.90;2.40;;;11.90;99.90;;;;;;4965620;28;20050;-77
2023/10/15 11:14:37;;;;;;;5.28;2.00;;;12.00;99.90;;;;;;4970508;28;20038;-77
2023/10/15 11:17:04;;;;;;;7.22;3.20;;;12.10;99.90;;;;;;4956065;28;20039;-77
2023/10/15 11:19:30;;;;;;;5.35;2.53;;;12.20;99.90;;;;;;4959916;28;20038;-76
2023/10/15 11:21:56;;;;;;;5.22;2.40;;;12.40;99.90;;;;;;4974813;28;20045;-77
2023/10/15 11:24:23;;;;;;;6.70;2.85;;;12.40;99.90;;;;;;4973105;28;20042;-76
2023/10/15 11:26:49;;;;;;;3.20;1.83;;;12.50;99.90;;;;;;4611649;28;9999698;-76
2023/10/15 11:29:18;;;;;;;5.00;2.45;;;12.50;99.90;;;;;;4624324;28;9999770;-76
2023/10/15 11:31:44;;;;;;;4.75;2.70;;;12.70;99.90;;;;;;4969751;28;20050;-76
2023/10/15 11:34:14;;;;;;;5.55;2.08;;;12.90;99.90;;;;;;4960665;28;20542;-76
2023/10/15 11:36:43;;;;;;;2.75;1.42;;;12.70;99.90;;;;;;4973651;28;20030;-76
2023/10/15 11:39:17;;;;;;;2.55;1.65;;;12.70;99.90;;;;;;4940843;28;20569;-76
2023/10/15 11:41:49;;;;;;;4.13;1.85;;;12.50;99.90;;;;;;4974196;28;20091;-76
2023/10/15 11:44:15;;;;;;;4.70;1.60;;;12.50;99.90;;;;;;4958502;28;20041;-75
2023/10/15 11:46:41;;;;;;;7.50;2.30;;;12.40;99.90;;;;;;4963272;28;20537;-76
2023/10/15 11:49:09;;;;;;;4.85;2.00;;;12.30;99.90;;;;;;4969361;28;20038;-76
2023/10/15 11:51:37;;;;;;;6.30;2.47;;;12.10;99.90;;;;;;4940156;28;20398;-76
2023/10/15 11:54:09;;;;;;;3.20;2.00;;;12.00;99.90;;;;;;4972060;28;20064;-77
2023/10/15 11:56:37;;;;;;;2.83;1.85;;;11.90;99.90;;;;;;4964792;28;20034;-76
2023/10/15 11:59:03;;;;;;;4.18;1.90;;;11.90;99.90;;;;;;4951993;28;20038;-77
2023/10/15 12:01:29;;;;;;;3.22;1.92;;;12.00;99.90;;;;;;4970126;28;20113;-77
2023/10/15 12:04:00;;;;;;;2.42;1.85;;;11.90;99.90;;;;;;4969121;28;20193;-77
2023/10/15 12:06:26;;;;;;;3.70;1.80;;;11.70;99.90;;;;;;4954499;28;20049;-76
2023/10/15 12:08:52;;;;;;;3.70;2.00;;;11.70;99.90;;;;;;4966151;28;20038;-77
2023/10/15 12:11:18;;;;;;;5.40;2.50;;;11.70;99.90;;;;;;4971841;28;20045;-77
2023/10/15 12:13:44;;;;;;;4.60;2.58;;;11.70;99.90;;;;;;4973762;28;20034;-78
2023/10/15 12:16:11;;;;;;;4.28;2.28;;;11.90;99.90;;;;;;4971011;28;20041;-77
2023/10/15 12:18:36;;;;;;;5.13;2.05;;;12.00;99.90;;;;;;4967796;28;20384;-77
2023/10/15 12:21:02;;;;;;;4.90;1.92;;;12.20;99.90;;;;;;4973067;28;20041;-77
2023/10/15 12:23:28;;;;;;;3.80;2.13;;;12.30;99.90;;;;;;4971895;28;20038;-77
2023/10/15 12:25:53;;;;;;;3.50;1.50;;;12.40;99.90;;;;;;4970601;28;20044;-76
2023/10/15 12:28:19;;;;;;;3.40;1.67;;;12.50;99.90;;;;;;4957740;28;20038;-77
2023/10/15 12:30:45;;;;;;;1.92;1.10;;;12.60;99.90;;;;;;4957089;28;20031;-77
2023/10/15 12:33:15;;;;;;;4.80;1.30;;;12.60;99.90;;;;;;4975733;28;20034;-77
2023/10/15 12:35:41;;;;;;;1.48;1.25;;;12.50;99.90;;;;;;4975087;28;20038;-77
2023/10/15 12:38:06;;;;;;;2.83;1.48;;;12.50;99.90;;;;;;4976837;28;20045;-77
2023/10/15 12:40:32;;;;;;;1.63;0.80;;;12.60;99.90;;;;;;4974411;28;20118;-78
2023/10/15 12:42:59;;;;;;;1.98;0.93;;;12.60;99.90;;;;;;4971205;28;20498;-77
2023/10/15 12:45:25;;;;;;;3.42;1.15;;;12.50;99.90;;;;;;4971662;28;20034;-77
2023/10/15 12:47:51;;;;;;;4.13;0.93;;;12.70;99.90;;;;;;4969606;28;20073;-76
2023/10/15 12:50:17;;;;;;;5.43;1.05;;;12.90;99.90;;;;;;4964810;28;20034;-77
2023/10/15 12:52:46;;;;;;;3.35;0.90;;;12.70;99.90;;;;;;4964520;28;20041;-77
2023/10/15 12:55:15;;;;;;;3.45;1.20;;;12.30;99.90;;;;;;4977191;28;20551;-77
2023/10/15 12:57:41;;;;;;;3.35;0.63;;;12.30;99.90;;;;;;4974302;28;20046;-77
2023/10/15 13:00:22;;;;;;;1.80;0.73;;;12.60;99.90;;;;;;4977428;28;20034;-77
2023/10/15 13:02:49;;;;;;;1.98;1.05;;;12.70;99.90;;;;;;4957630;28;20097;-77
2023/10/15 13:05:15;;;;;;;2.05;1.30;;;13.10;99.90;;;;;;4958407;28;20502;-77
2023/10/15 13:07:41;;;;;;;2.55;1.00;;;13.20;99.90;;;;;;4976619;28;20058;-77
2023/10/15 13:10:09;;;;;;;1.98;1.00;;;13.80;99.90;;;;;;4974915;28;20497;-77
2023/10/15 13:12:35;;;;;;;3.85;1.23;;;13.60;99.90;;;;;;4961702;28;20046;-77